Time;durP1;ratioP1;P1;durP2;ratioP2;P2;SDS_P1;SDS_P2;PMS_P1;PMS_P2;Temp;Humidity;BMP_temperature;BMP_pressure;BME280_temperature;BME280_humidity;BME280_pressure;Samples;Min_cycle;Max_cycle;Signal;HPM_P1;HPM_P2
2023/09/14 00:00:53;;;;;;;16.50;13.80;;;;;;;19.06;87.01;100224.21;108924;278;39390;-76
2023/09/14 00:03:35;;;;;;;16.80;13.80;;;;;;;19.05;87.17;100221.45;109003;278;38960;-76
2023/09/14 00:06:09;;;;;;;16.10;14.00;;;;;;;19.03;87.07;100217.02;108922;278;38575;-78
2023/09/14 00:08:44;;;;;;;17.90;15.80;;;;;;;19.01;87.20;100217.36;108848;278;188040;-77
2023/09/14 00:11:19;;;;;;;16.20;14.40;;;;;;;19.00;87.19;100214.42;108879;278;38133;-78
2023/09/14 00:13:55;;;;;;;15.30;13.70;;;;;;;18.99;87.28;100218.93;109003;278;39324;-76
2023/09/14 00:16:30;;;;;;;15.10;13.30;;;;;;;18.96;87.33;100217.91;108902;278;38272;-73
2023/09/14 00:19:04;;;;;;;19.30;14.60;;;;;;;18.95;87.77;100216.94;108949;278;38150;-76
2023/09/14 00:21:38;;;;;;;14.70;13.20;;;;;;;18.97;87.86;100217.87;108970;278;38206;-76
2023/09/14 00:24:15;;;;;;;16.80;15.00;;;;;;;18.96;87.95;100217.70;109009;278;39269;-76
2023/09/14 00:26:53;;;;;;;15.40;13.80;;;;;;;18.97;88.12;100215.92;108954;278;38460;-76
2023/09/14 00:29:30;;;;;;;16.80;14.50;;;;;;;18.97;88.21;100221.03;109037;278;39611;-74
2023/09/14 00:32:06;;;;;;;16.10;13.40;;;;;;;18.96;88.14;100218.27;108989;278;39369;-76
2023/09/14 00:34:45;;;;;;;17.20;13.60;;;;;;;18.95;88.32;100215.50;108915;278;38062;-75
2023/09/14 00:37:22;;;;;;;14.90;13.30;;;;;;;18.95;88.22;100218.88;108711;278;38446;-79
2023/09/14 00:39:55;;;;;;;14.70;13.20;;;;;;;18.93;88.23;100219.91;108921;278;38628;-74
2023/09/14 00:42:36;;;;;;;14.80;13.20;;;;;;;18.93;88.55;100220.42;108941;278;39349;-76
2023/09/14 00:45:13;;;;;;;15.10;13.30;;;;;;;18.92;88.71;100219.98;108971;278;38276;-76
2023/09/14 00:47:52;;;;;;;14.30;12.80;;;;;;;18.92;88.93;100224.02;108943;278;38395;-75
2023/09/14 00:50:27;;;;;;;15.50;13.10;;;;;;;18.93;88.90;100221.53;108951;278;38476;-75
2023/09/14 00:53:03;;;;;;;13.40;12.00;;;;;;;18.95;89.01;100225.40;108932;279;38133;-77
2023/09/14 00:55:37;;;;;;;13.20;11.80;;;;;;;18.96;89.10;100225.67;108952;279;38428;-75
2023/09/14 00:58:15;;;;;;;13.70;12.10;;;;;;;18.99;89.15;100229.01;109007;279;38162;-76
2023/09/14 01:00:49;;;;;;;14.10;12.60;;;;;;;19.00;89.09;100232.42;108920;279;39397;-77
2023/09/14 01:03:28;;;;;;;14.40;12.90;;;;;;;19.03;89.23;100231.38;108897;279;38474;-77
2023/09/14 01:06:01;;;;;;;14.00;12.60;;;;;;;19.05;89.15;100237.57;108848;279;39410;-75
2023/09/14 01:08:35;;;;;;;14.00;12.40;;;;;;;19.03;89.02;100234.33;108831;279;39883;-73
2023/09/14 01:11:11;;;;;;;13.30;11.80;;;;;;;19.00;89.02;100236.88;108813;279;38341;-75
2023/09/14 01:13:49;;;;;;;14.50;12.80;;;;;;;18.98;89.02;100239.55;108847;279;38295;-75
2023/09/14 01:16:33;;;;;;;12.80;11.20;;;;;;;19.00;89.30;100243.36;108826;279;39041;-75
2023/09/14 01:19:15;;;;;;;13.90;11.10;;;;;;;19.03;89.10;100245.29;108865;279;38219;-76
2023/09/14 01:22:08;;;;;;;13.40;12.00;;;;;;;19.02;89.04;100246.29;108825;279;38689;-74
2023/09/14 01:24:54;;;;;;;14.00;12.60;;;;;;;19.02;89.24;100245.34;108830;279;39438;-76
2023/09/14 01:27:29;;;;;;;14.10;12.70;;;;;;;19.02;89.40;100245.05;108883;279;38631;-76
2023/09/14 01:30:07;;;;;;;13.40;12.00;;;;;;;19.01;89.06;100245.30;108937;279;38155;-75
2023/09/14 01:32:46;;;;;;;14.10;12.00;;;;;;;18.98;89.15;100248.16;108920;279;39398;-75
2023/09/14 01:35:21;;;;;;;13.20;11.50;;;;;;;18.96;89.01;100250.63;108880;279;38323;-73
2023/09/14 01:37:58;;;;;;;12.70;11.50;;;;;;;18.95;89.31;100255.98;108958;279;38545;-74
2023/09/14 01:40:36;;;;;;;13.20;11.90;;;;;;;18.96;89.41;100258.77;108919;279;39401;-74
2023/09/14 01:43:12;;;;;;;14.70;12.10;;;;;;;18.97;89.37;100257.80;108864;279;38245;-82
2023/09/14 01:45:46;;;;;;;12.80;11.40;;;;;;;18.95;89.35;100263.58;108862;279;38361;-81
2023/09/14 01:48:24;;;;;;;12.70;11.40;;;;;;;18.92;89.27;100262.05;108956;279;38648;-75
2023/09/14 01:50:58;;;;;;;13.50;11.10;;;;;;;18.92;89.36;100266.85;108889;279;39956;-75
2023/09/14 01:53:32;;;;;;;11.90;10.70;;;;;;;18.90;89.37;100266.25;108876;279;38949;-74
2023/09/14 01:56:06;;;;;;;12.20;11.00;;;;;;;18.91;89.38;100269.56;108885;279;38597;-75
2023/09/14 01:58:42;;;;;;;14.10;12.00;;;;;;;18.91;89.39;100272.73;108756;279;174957;-76
2023/09/14 02:01:17;;;;;;;13.20;11.60;;;;;;;18.90;89.38;100277.39;108843;279;38045;-74
2023/09/14 02:03:53;;;;;;;13.90;12.40;;;;;;;18.87;89.33;100275.69;108813;279;38228;-73
2023/09/14 02:06:27;;;;;;;12.70;11.40;;;;;;;18.84;89.32;100272.90;108839;279;38451;-71
2023/09/14 02:09:03;;;;;;;13.70;11.30;;;;;;;18.79;89.26;100277.52;108954;279;38245;-73
2023/09/14 02:11:37;;;;;;;12.20;11.00;;;;;;;18.78;89.53;100277.71;108901;279;38175;-73
2023/09/14 02:14:10;;;;;;;12.00;10.80;;;;;;;18.78;89.51;100278.60;108935;279;38850;-74
2023/09/14 02:16:47;;;;;;;14.00;11.60;;;;;;;18.78;89.55;100285.91;108862;279;40274;-72
2023/09/14 02:19:23;;;;;;;12.60;11.40;;;;;;;18.79;89.91;100280.48;108874;279;38250;-73
2023/09/14 02:22:02;;;;;;;12.80;11.00;;;;;;;18.79;89.86;100284.25;108879;279;38322;-74
2023/09/14 02:24:36;;;;;;;14.30;11.10;;;;;;;18.78;89.98;100284.80;108906;279;38963;-73
2023/09/14 02:27:11;;;;;;;11.70;10.50;;;;;;;18.79;89.94;100286.54;108932;279;38225;-71
2023/09/14 02:29:47;;;;;;;12.40;10.10;;;;;;;18.79;90.01;100287.40;108899;279;38716;-71
2023/09/14 02:32:21;;;;;;;11.10;10.00;;;;;;;18.81;90.14;100292.17;108840;279;38232;-73
2023/09/14 02:34:55;;;;;;;10.80;9.60;;;;;;;18.86;90.12;100299.14;108854;279;38153;-73
2023/09/14 02:37:30;;;;;;;12.60;11.10;;;;;;;18.88;90.08;100304.26;108882;279;38234;-73
2023/09/14 02:40:06;;;;;;;11.20;9.90;;;;;;;18.87;89.61;100305.77;108914;279;38875;-74
2023/09/14 02:42:43;;;;;;;10.80;9.60;;;;;;;18.86;89.56;100303.38;108766;279;174900;-74
2023/09/14 02:45:20;;;;;;;10.80;9.70;;;;;;;18.82;89.45;100299.04;108830;279;38839;-72
2023/09/14 02:47:53;;;;;;;10.80;9.70;;;;;;;18.79;89.63;100304.90;108855;279;38936;-73
2023/09/14 02:50:27;;;;;;;10.60;9.60;;;;;;;18.76;89.45;100309.17;108887;279;38153;-74
2023/09/14 02:53:02;;;;;;;10.70;9.70;;;;;;;18.78;89.69;100315.36;108900;279;38478;-74
2023/09/14 02:55:39;;;;;;;10.90;9.70;;;;;;;18.80;89.80;100317.52;108775;279;172196;-71
2023/09/14 02:58:18;;;;;;;10.70;9.70;;;;;;;18.80;89.82;100316.88;108812;279;38713;-71
2023/09/14 03:00:54;;;;;;;10.60;9.30;;;;;;;18.79;89.76;100318.52;108902;279;38375;-74
2023/09/14 03:03:29;;;;;;;11.20;9.50;;;;;;;18.78;89.84;100321.42;108902;279;38164;-74
2023/09/14 03:06:07;;;;;;;9.90;8.80;;;;;;;18.75;89.73;100327.98;108887;279;40009;-74
2023/09/14 03:08:43;;;;;;;12.80;9.90;;;;;;;18.76;90.04;100333.21;108916;279;38188;-71
2023/09/14 03:11:17;;;;;;;10.70;9.70;;;;;;;18.76;89.73;100334.30;108857;279;38261;-71
2023/09/14 03:13:54;;;;;;;10.90;9.80;;;;;;;18.75;89.91;100336.32;108872;279;39016;-72
2023/09/14 03:16:28;;;;;;;10.10;9.00;;;;;;;18.73;89.95;100337.14;108875;279;39324;-72
2023/09/14 03:19:03;;;;;;;12.90;9.40;;;;;;;18.73;90.05;100344.92;108876;279;39326;-74
2023/09/14 03:21:37;;;;;;;8.90;8.00;;;;;;;18.74;89.91;100348.23;108885;279;38333;-73
2023/09/14 03:24:11;;;;;;;9.40;8.40;;;;;;;18.75;90.19;100348.66;108934;279;38318;-72
2023/09/14 03:26:46;;;;;;;8.90;7.80;;;;;;;18.75;90.04;100353.07;108845;279;38275;-73
2023/09/14 03:29:20;;;;;;;8.90;8.00;;;;;;;18.75;89.92;100353.92;108890;279;38339;-74
2023/09/14 03:31:55;;;;;;;10.10;8.40;;;;;;;18.77;90.11;100356.15;108882;279;39379;-72
2023/09/14 03:34:30;;;;;;;8.20;7.40;;;;;;;18.76;90.09;100357.98;108883;279;38876;-72
2023/09/14 03:37:06;;;;;;;10.70;7.70;;;;;;;18.74;89.94;100360.20;108883;279;38483;-73
2023/09/14 03:39:45;;;;;;;7.90;7.10;;;;;;;18.74;90.02;100364.45;108936;279;39090;-72
2023/09/14 03:42:19;;;;;;;7.70;6.90;;;;;;;18.73;89.84;100366.97;108919;279;38413;-71
2023/09/14 03:44:54;;;;;;;9.80;7.20;;;;;;;18.74;89.96;100372.42;108973;279;38308;-73
2023/09/14 03:47:27;;;;;;;10.90;7.30;;;;;;;18.75;90.00;100373.54;108938;279;38376;-72
2023/09/14 03:50:02;;;;;;;8.00;7.20;;;;;;;18.75;89.92;100378.70;108934;279;39262;-72
2023/09/14 03:52:42;;;;;;;9.20;6.60;;;;;;;18.76;90.13;100384.30;108884;279;39224;-73
2023/09/14 03:55:18;;;;;;;7.60;6.60;;;;;;;18.75;90.08;100387.17;108895;279;38172;-74
2023/09/14 03:57:56;;;;;;;7.90;6.50;;;;;;;18.75;89.96;100391.60;108915;279;39274;-73
2023/09/14 04:00:30;;;;;;;6.80;6.20;;;;;;;18.76;90.01;100396.49;108877;279;39349;-73
2023/09/14 04:03:05;;;;;;;10.40;6.50;;;;;;;18.75;90.01;100399.01;108891;279;38223;-73
2023/09/14 04:05:39;;;;;;;8.00;6.80;;;;;;;18.75;89.87;100403.29;108895;279;38243;-73
2023/09/14 04:08:15;;;;;;;6.20;5.70;;;;;;;18.74;90.08;100408.16;108905;279;38583;-72
2023/09/14 04:10:51;;;;;;;6.80;6.20;;;;;;;18.74;90.11;100410.62;108873;279;39016;-74
2023/09/14 04:13:37;;;;;;;6.20;5.60;;;;;;;18.72;89.97;100412.88;108879;279;38994;-74
2023/09/14 04:16:13;;;;;;;5.90;5.30;;;;;;;18.72;90.15;100417.08;108974;279;39695;-74
2023/09/14 04:18:48;;;;;;;5.80;5.20;;;;;;;18.72;90.23;100421.67;108922;279;38575;-73
2023/09/14 04:21:24;;;;;;;6.60;5.70;;;;;;;18.73;90.18;100425.50;108902;279;38911;-72
2023/09/14 04:24:00;;;;;;;5.90;5.40;;;;;;;18.71;90.06;100422.80;108933;279;38479;-74
2023/09/14 04:26:38;;;;;;;7.50;5.60;;;;;;;18.71;89.98;100426.16;108904;279;38289;-74
2023/09/14 04:29:20;;;;;;;5.80;5.30;;;;;;;18.72;90.20;100428.41;108943;279;38352;-71
2023/09/14 04:32:04;;;;;;;5.00;4.60;;;;;;;18.73;90.26;100429.41;108957;279;38672;-73
2023/09/14 04:34:42;;;;;;;5.50;4.90;;;;;;;18.72;90.04;100434.23;108942;279;39407;-71
2023/09/14 04:37:20;;;;;;;5.40;4.80;;;;;;;18.73;90.26;100434.88;108855;279;38171;-73
2023/09/14 04:39:55;;;;;;;5.70;5.10;;;;;;;18.73;90.27;100436.11;108899;279;38711;-71
2023/09/14 04:42:35;;;;;;;5.50;4.80;;;;;;;18.71;90.09;100436.64;108849;279;38222;-75
2023/09/14 04:45:14;;;;;;;5.30;4.40;;;;;;;18.70;90.17;100443.93;108868;279;38280;-71
2023/09/14 04:48:01;;;;;;;5.70;4.50;;;;;;;18.71;90.19;100449.48;108807;279;39341;-72
2023/09/14 04:50:41;;;;;;;4.80;4.30;;;;;;;18.71;90.07;100451.08;108828;279;38919;-71
2023/09/14 04:53:22;;;;;;;5.80;4.30;;;;;;;18.69;90.11;100454.94;108910;279;39337;-72
2023/09/14 04:55:56;;;;;;;6.30;4.40;;;;;;;18.70;90.20;100460.75;108878;279;38478;-72
2023/09/14 04:58:31;;;;;;;6.80;4.40;;;;;;;18.71;90.21;100464.73;108893;279;38313;-73
2023/09/14 05:01:08;;;;;;;4.40;3.80;;;;;;;18.68;90.10;100467.58;108868;279;38416;-71
2023/09/14 05:03:42;;;;;;;5.20;3.70;;;;;;;18.66;90.09;100472.80;108867;279;39314;-71
2023/09/14 05:06:17;;;;;;;4.30;3.50;;;;;;;18.68;90.26;100480.09;108939;279;38189;-71
2023/09/14 05:08:55;;;;;;;3.50;3.00;;;;;;;18.69;89.96;100480.78;108783;279;172179;-73
2023/09/14 05:11:30;;;;;;;3.80;3.50;;;;;;;18.69;90.13;100489.73;108898;279;38184;-72
2023/09/14 05:14:06;;;;;;;6.80;3.30;;;;;;;18.69;90.07;100493.63;108922;279;38352;-76
2023/09/14 05:16:45;;;;;;;4.60;3.20;;;;;;;18.69;89.99;100492.05;108913;279;38164;-74
2023/09/14 05:19:20;;;;;;;3.70;3.30;;;;;;;18.68;89.96;100496.88;108947;279;38912;-72
2023/09/14 05:22:02;;;;;;;5.10;3.20;;;;;;;18.68;90.06;100494.75;108828;279;38207;-72
2023/09/14 05:24:36;;;;;;;5.00;3.30;;;;;;;18.69;89.81;100497.33;108233;279;896203;-72
2023/09/14 05:27:12;;;;;;;5.50;3.30;;;;;;;18.67;89.66;100499.09;108878;279;39132;-71
2023/09/14 05:29:46;;;;;;;4.30;2.90;;;;;;;18.65;89.67;100501.02;108873;279;38230;-71
2023/09/14 05:32:21;;;;;;;5.00;3.50;;;;;;;18.64;89.71;100501.58;108917;279;38149;-71
2023/09/14 05:34:59;;;;;;;5.90;2.90;;;;;;;18.64;89.81;100501.38;108924;279;38225;-71
2023/09/14 05:37:40;;;;;;;3.20;2.90;;;;;;;18.65;89.70;100506.08;108951;279;39466;-71
2023/09/14 05:40:17;;;;;;;3.60;2.70;;;;;;;18.62;89.30;100510.06;108881;279;38193;-72
2023/09/14 05:42:51;;;;;;;2.90;2.40;;;;;;;18.61;89.72;100511.64;108947;279;38718;-72
2023/09/14 05:45:27;;;;;;;3.50;2.80;;;;;;;18.63;89.84;100515.96;108923;279;38263;-71
2023/09/14 05:48:05;;;;;;;3.50;2.40;;;;;;;18.62;89.55;100520.29;108874;279;39024;-71
2023/09/14 05:50:40;;;;;;;3.70;2.80;;;;;;;18.60;89.61;100523.39;108862;279;38338;-72
2023/09/14 05:53:18;;;;;;;2.40;2.10;;;;;;;18.61;89.66;100523.48;108931;279;38757;-71
2023/09/14 05:55:57;;;;;;;3.50;2.30;;;;;;;18.64;89.53;100523.71;108989;279;39566;-73
2023/09/14 05:58:31;;;;;;;2.90;2.40;;;;;;;18.66;89.53;100528.48;108892;279;39534;-74
2023/09/14 06:01:08;;;;;;;3.60;2.80;;;;;;;18.67;89.60;100525.20;108926;279;38210;-75
2023/09/14 06:03:47;;;;;;;2.50;2.20;;;;;;;18.68;89.25;100531.00;108883;279;39199;-73
2023/09/14 06:06:23;;;;;;;3.00;2.10;;;;;;;18.73;89.87;100530.88;108887;279;38268;-74
2023/09/14 06:09:01;;;;;;;3.80;2.40;;;;;;;18.80;90.30;100528.20;108854;279;41598;-73
2023/09/14 06:11:36;;;;;;;2.80;2.10;;;;;;;18.92;90.11;100533.73;108876;279;38529;-73
2023/09/14 06:14:11;;;;;;;6.10;2.50;;;;;;;19.06;90.75;100532.72;108859;279;39505;-76
2023/09/14 06:16:45;;;;;;;3.10;2.60;;;;;;;19.26;90.56;100535.39;108898;279;38715;-75
2023/09/14 06:19:20;;;;;;;3.40;2.20;;;;;;;19.43;90.15;100542.52;108832;279;38411;-73
2023/09/14 06:21:57;;;;;;;3.30;2.20;;;;;;;19.52;89.39;100541.69;108872;272;38897;-73
2023/09/14 06:24:34;;;;;;;3.20;2.10;;;;;;;19.60;88.15;100546.40;108845;279;38425;-73
2023/09/14 06:27:09;;;;;;;3.70;2.20;;;;;;;19.63;87.63;100546.06;108882;279;38753;-73
2023/09/14 06:29:47;;;;;;;2.80;2.10;;;;;;;19.70;87.19;100548.52;108923;279;38868;-73
2023/09/14 06:32:24;;;;;;;3.80;2.40;;;;;;;19.76;86.97;100544.20;108916;276;38454;-73
2023/09/14 06:35:00;;;;;;;2.80;1.70;;;;;;;19.88;86.99;100549.02;108936;279;39089;-76
2023/09/14 06:37:39;;;;;;;3.00;2.10;;;;;;;20.02;87.07;100550.96;108942;279;38132;-76
2023/09/14 06:40:18;;;;;;;2.40;2.20;;;;;;;20.19;86.50;100550.57;108884;279;188194;-76
2023/09/14 06:42:57;;;;;;;2.70;2.00;;;;;;;20.31;85.74;100552.86;108807;279;174791;-75
2023/09/14 06:45:33;;;;;;;1.90;1.60;;;;;;;20.42;85.65;100558.79;108855;279;38151;-74
2023/09/14 06:48:15;;;;;;;2.20;2.00;;;;;;;20.47;84.70;100561.54;108886;279;38286;-74
2023/09/14 06:50:52;;;;;;;3.00;2.00;;;;;;;20.47;83.99;100560.65;108864;279;38448;-72
2023/09/14 06:53:28;;;;;;;3.70;2.30;;;;;;;20.48;83.40;100563.27;108871;279;38864;-75
2023/09/14 06:56:09;;;;;;;2.10;1.80;;;;;;;20.43;82.60;100558.86;108914;279;38915;-74
2023/09/14 06:58:45;;;;;;;3.80;1.80;;;;;;;20.42;82.46;100561.39;108533;279;40247;-75
2023/09/14 07:01:20;;;;;;;2.60;2.30;;;;;;;20.47;82.77;100560.50;108849;279;38162;-74
2023/09/14 07:03:57;;;;;;;3.60;2.10;;;;;;;20.58;83.06;100562.80;108869;279;39621;-74
2023/09/14 07:06:33;;;;;;;3.70;2.20;;;;;;;20.68;82.84;100564.91;108871;279;38322;-74
2023/09/14 07:09:08;;;;;;;;;;;;;;;20.78;82.48;100566.93;108884;279;39309;-73
2023/09/14 07:11:43;;;;;;;2.60;1.70;;;;;;;20.80;81.56;100571.24;108885;279;38941;-74
2023/09/14 07:14:18;;;;;;;2.80;2.00;;;;;;;20.85;81.01;100567.98;108947;279;38522;-77
2023/09/14 07:16:54;;;;;;;3.50;1.80;;;;;;;20.94;81.32;100565.70;108870;279;38282;-76
2023/09/14 07:19:32;;;;;;;5.20;2.10;;;;;;;21.16;82.24;100564.85;108985;279;38270;-76
2023/09/14 07:22:12;;;;;;;2.80;1.90;;;;;;;21.37;80.88;100560.39;108959;279;38868;-73
2023/09/14 07:24:49;;;;;;;2.40;2.00;;;;;;;21.53;80.14;100564.05;108918;279;39410;-74
2023/09/14 07:27:25;;;;;;;3.70;1.80;;;;;;;21.67;79.10;100561.16;108950;279;39807;-76
2023/09/14 07:30:02;;;;;;;1.80;1.60;;;;;;;21.82;79.20;100563.64;108883;279;38391;-74
2023/09/14 07:32:39;;;;;;;3.70;1.60;;;;;;;21.94;77.66;100567.87;108909;279;38388;-74
2023/09/14 07:35:15;;;;;;;1.90;1.70;;;;;;;21.97;76.94;100564.02;108842;279;38347;-75
2023/09/14 07:37:51;;;;;;;3.90;1.60;;;;;;;22.03;76.23;100566.36;108942;279;38235;-75
2023/09/14 07:40:28;;;;;;;2.10;1.40;;;;;;;22.13;76.80;100564.33;108841;279;39212;-75
2023/09/14 07:43:02;;;;;;;2.80;1.50;;;;;;;22.25;73.87;100568.15;108864;279;38413;-74
2023/09/14 07:45:39;;;;;;;1.90;1.10;;;;;;;22.22;72.56;100563.54;108813;279;38282;-74
2023/09/14 07:48:16;;;;;;;2.10;1.10;;;;;;;22.25;72.61;100567.45;108849;279;38763;-72
2023/09/14 07:50:50;;;;;;;1.60;1.00;;;;;;;22.17;70.16;100571.48;108871;279;38297;-72
2023/09/14 07:53:25;;;;;;;2.20;1.10;;;;;;;22.02;70.48;100579.80;108909;279;38475;-72
2023/09/14 07:56:01;;;;;;;2.10;1.30;;;;;;;22.07;72.12;100578.48;108910;279;38945;-73
2023/09/14 07:58:38;;;;;;;1.00;0.90;;;;;;;22.66;73.31;100578.00;108810;279;38481;-74
2023/09/14 08:01:13;;;;;;;1.50;0.90;;;;;;;23.45;72.22;100577.70;108956;279;38308;-72
2023/09/14 08:03:48;;;;;;;1.10;1.00;;;;;;;24.37;70.21;100579.34;108884;279;38406;-72
2023/09/14 08:06:24;;;;;;;1.90;0.90;;;;;;;25.03;65.86;100577.29;108821;279;38514;-76
2023/09/14 08:09:02;;;;;;;2.20;0.70;;;;;;;25.11;61.96;100580.26;108914;279;38660;-72
2023/09/14 08:11:41;;;;;;;1.30;0.90;;;;;;;24.84;60.74;100583.55;108915;279;40098;-71
2023/09/14 08:14:16;;;;;;;1.50;0.60;;;;;;;24.57;60.83;100583.27;108930;279;39850;-74
2023/09/14 08:16:56;;;;;;;1.00;0.80;;;;;;;24.63;60.67;100588.48;108885;279;39007;-74
2023/09/14 08:19:30;;;;;;;1.70;0.70;;;;;;;24.57;59.74;100589.31;108895;279;38610;-74
2023/09/14 08:22:04;;;;;;;1.10;0.60;;;;;;;24.35;58.07;100592.59;108937;279;38152;-73
2023/09/14 08:24:43;;;;;;;1.40;0.70;;;;;;;24.08;58.98;100590.91;108868;279;38265;-74
2023/09/14 08:27:20;;;;;;;;;;;;;;;24.32;60.00;100590.30;108906;279;38781;-76
2023/09/14 08:29:56;;;;;;;1.30;0.70;;;;;;;24.83;58.45;100588.81;108895;279;38402;-75
2023/09/14 08:32:32;;;;;;;1.60;0.90;;;;;;;25.25;57.74;100586.57;108909;279;38269;-74
2023/09/14 08:35:25;;;;;;;0.70;0.70;;;;;;;25.23;56.44;100588.81;108887;279;38379;-74
2023/09/14 08:38:09;;;;;;;1.60;0.70;;;;;;;24.88;55.03;100598.34;108900;279;38739;-77
2023/09/14 08:40:51;;;;;;;0.80;0.50;;;;;;;24.53;55.74;100599.86;108907;279;39331;-74
2023/09/14 08:43:25;;;;;;;1.20;0.70;;;;;;;24.62;56.15;100606.69;108931;279;39557;-73
2023/09/14 08:46:04;;;;;;;1.20;0.80;;;;;;;24.94;56.09;100606.52;108905;279;38180;-73
2023/09/14 08:48:39;;;;;;;0.90;0.70;;;;;;;25.26;55.03;100601.19;108942;279;39338;-74
2023/09/14 08:51:15;;;;;;;0.60;0.60;;;;;;;25.36;53.96;100601.64;108963;279;38477;-73
2023/09/14 08:53:49;;;;;;;1.40;0.60;;;;;;;25.21;53.21;100613.25;108909;279;39608;-78
2023/09/14 08:56:24;;;;;;;0.90;0.70;;;;;;;25.02;52.88;100615.93;108923;279;39831;-76
2023/09/14 08:58:59;;;;;;;0.70;0.50;;;;;;;25.13;52.46;100616.28;108949;279;38257;-74
2023/09/14 09:01:35;;;;;;;1.90;0.50;;;;;;;25.29;52.31;100619.27;108920;279;38771;-74
2023/09/14 09:04:12;;;;;;;0.60;0.60;;;;;;;25.56;52.34;100619.67;108874;279;39317;-74
2023/09/14 09:06:48;;;;;;;0.80;0.70;;;;;;;25.55;51.09;100622.10;108866;279;38414;-74
2023/09/14 09:09:23;;;;;;;1.40;0.60;;;;;;;25.31;51.05;100620.48;108925;279;39631;-76
2023/09/14 09:11:59;;;;;;;1.70;0.60;;;;;;;25.08;51.31;100624.48;108892;279;38929;-76
2023/09/14 09:14:34;;;;;;;1.20;0.70;;;;;;;24.86;52.00;100631.71;108756;279;174610;-75
2023/09/14 09:17:11;;;;;;;1.00;0.70;;;;;;;24.73;52.00;100628.77;108888;279;38139;-74
2023/09/14 09:19:53;;;;;;;0.90;0.70;;;;;;;24.57;52.67;100629.98;108838;279;40998;-74
2023/09/14 09:22:27;;;;;;;1.30;0.90;;;;;;;24.51;53.30;100632.30;108797;279;38426;-75
2023/09/14 09:25:04;;;;;;;1.00;0.70;;;;;;;24.33;53.31;100632.31;108890;279;38232;-74
2023/09/14 09:27:42;;;;;;;1.00;0.90;;;;;;;24.09;53.64;100633.27;108845;279;38154;-73
2023/09/14 09:30:17;;;;;;;3.70;1.10;;;;;;;23.90;54.68;100627.10;108880;279;39358;-72
2023/09/14 09:32:51;;;;;;;1.00;0.80;;;;;;;23.78;55.07;100634.47;108210;279;891418;-73
2023/09/14 09:35:34;;;;;;;1.00;0.90;;;;;;;23.62;55.31;100630.10;108919;279;38347;-73
2023/09/14 09:38:18;;;;;;;1.20;1.00;;;;;;;23.61;56.25;100631.11;108910;279;39002;-72
2023/09/14 09:40:58;;;;;;;1.10;1.00;;;;;;;23.66;56.49;100630.84;108891;279;38318;-73
2023/09/14 09:43:34;;;;;;;1.60;1.00;;;;;;;23.63;56.23;100633.65;108925;279;38301;-77
2023/09/14 09:46:18;;;;;;;1.20;0.90;;;;;;;23.53;56.21;100634.70;108916;279;38449;-77
2023/09/14 09:48:57;;;;;;;1.20;0.80;;;;;;;23.32;56.14;100630.69;108919;279;39637;-74
2023/09/14 09:51:32;;;;;;;1.80;0.80;;;;;;;23.17;55.99;100632.85;108887;279;39969;-74
2023/09/14 09:54:08;;;;;;;1.60;1.20;;;;;;;23.07;56.43;100632.30;108883;279;38239;-74
2023/09/14 09:56:45;;;;;;;1.20;0.90;;;;;;;23.03;57.06;100629.08;108889;279;38163;-73
2023/09/14 09:59:29;;;;;;;0.90;0.80;;;;;;;23.02;57.24;100636.48;108880;279;38163;-73
2023/09/14 10:02:08;;;;;;;1.80;1.20;;;;;;;22.97;57.02;100635.48;108870;279;38319;-77
2023/09/14 10:04:55;;;;;;;0.80;0.80;;;;;;;22.88;57.31;100638.02;108888;279;39800;-73
2023/09/14 10:07:34;;;;;;;2.00;0.70;;;;;;;22.79;57.48;100644.98;108901;279;39726;-73
2023/09/14 10:10:14;;;;;;;2.10;0.90;;;;;;;22.61;57.05;100650.41;108883;279;40693;-73
2023/09/14 10:12:48;;;;;;;0.90;0.80;;;;;;;22.46;57.76;100653.05;108929;279;38131;-75
2023/09/14 10:15:26;;;;;;;0.90;0.70;;;;;;;22.34;57.91;100654.95;108900;279;38532;-72
2023/09/14 10:18:04;;;;;;;1.70;1.00;;;;;;;22.18;57.97;100659.70;108815;279;39341;-75
2023/09/14 10:20:44;;;;;;;1.10;0.80;;;;;;;22.07;58.66;100663.01;108945;279;38177;-74
2023/09/14 10:23:21;;;;;;;1.90;1.10;;;;;;;22.03;59.15;100662.83;108769;279;174657;-73
2023/09/14 10:25:58;;;;;;;1.10;1.00;;;;;;;22.07;59.99;100664.29;108894;279;38383;-73
2023/09/14 10:28:42;;;;;;;1.80;0.90;;;;;;;22.15;60.51;100668.06;108922;279;39393;-76
2023/09/14 10:31:16;;;;;;;1.20;1.00;;;;;;;22.23;60.60;100666.23;108937;279;38487;-74
2023/09/14 10:33:52;;;;;;;1.60;1.10;;;;;;;22.29;60.60;100666.03;108980;279;38265;-75
2023/09/14 10:36:32;;;;;;;3.00;1.30;;;;;;;22.50;60.81;100671.82;108926;279;39613;-76
2023/09/14 10:39:08;;;;;;;1.00;0.90;;;;;;;22.66;60.66;100668.66;108930;279;39456;-76
2023/09/14 10:41:44;;;;;;;;;;;;;;;22.82;60.30;100661.09;108923;279;38861;-76
2023/09/14 10:44:20;;;;;;;1.40;1.20;;;;;;;22.90;60.52;100661.16;108826;279;38385;-77
2023/09/14 10:46:55;;;;;;;1.20;1.10;;;;;;;22.96;59.68;100659.39;108928;279;38363;-76
2023/09/14 10:49:35;;;;;;;1.20;1.00;;;;;;;22.96;59.75;100662.64;108938;279;38441;-76
2023/09/14 10:52:10;;;;;;;0.90;0.90;;;;;;;22.94;59.68;100662.62;108861;279;38827;-74
2023/09/14 10:54:47;;;;;;;1.30;1.10;;;;;;;22.86;59.39;100666.99;108933;279;38258;-76
2023/09/14 10:57:32;;;;;;;0.90;0.80;;;;;;;22.81;59.76;100672.17;108810;279;38961;-75
2023/09/14 11:00:10;;;;;;;1.40;0.80;;;;;;;22.78;59.31;100672.46;108876;279;39484;-76
2023/09/14 11:02:58;;;;;;;1.40;1.00;;;;;;;22.80;59.42;100673.39;108728;279;174650;-76
2023/09/14 11:05:46;;;;;;;0.80;0.80;;;;;;;22.81;58.89;100672.00;108834;279;39077;-76
2023/09/14 11:08:23;;;;;;;2.10;0.80;;;;;;;22.82;59.07;100667.29;108899;279;39306;-76
2023/09/14 11:11:01;;;;;;;1.10;0.60;;;;;;;22.92;59.02;100669.19;108899;279;40087;-74
2023/09/14 11:13:42;;;;;;;0.70;0.60;;;;;;;23.01;58.48;100675.55;108907;279;38253;-74
2023/09/14 11:16:25;;;;;;;1.50;0.70;;;;;;;23.07;58.30;100676.59;108891;279;38200;-79
2023/09/14 11:19:01;;;;;;;1.10;0.70;;;;;;;23.15;57.97;100678.20;108979;279;38148;-73
2023/09/14 11:21:52;;;;;;;0.60;0.50;;;;;;;23.22;57.74;100678.90;108867;279;38301;-73
2023/09/14 11:24:34;;;;;;;0.70;0.60;;;;;;;23.24;57.38;100682.42;108900;279;38163;-76
2023/09/14 11:27:10;;;;;;;1.10;0.60;;;;;;;23.27;57.36;100685.02;108872;279;38817;-77
2023/09/14 11:29:48;;;;;;;0.70;0.70;;;;;;;23.28;57.12;100684.90;108835;279;38170;-79
2023/09/14 11:32:29;;;;;;;1.00;0.60;;;;;;;23.33;57.50;100680.05;108954;279;40219;-75
2023/09/14 11:35:04;;;;;;;0.80;0.50;;;;;;;23.41;57.57;100678.32;108949;279;38479;-76
2023/09/14 11:37:44;;;;;;;0.90;0.60;;;;;;;23.45;57.50;100681.87;108853;279;38171;-74
2023/09/14 11:40:19;;;;;;;0.70;0.60;;;;;;;23.44;57.34;100685.30;108863;279;39407;-76
2023/09/14 11:43:24;;;;;;;0.70;0.70;;;;;;;23.35;57.09;100684.53;108861;279;39042;-76
2023/09/14 11:46:03;;;;;;;0.80;0.70;;;;;;;23.16;56.44;100689.84;108855;279;38405;-77
2023/09/14 11:48:39;;;;;;;2.00;0.70;;;;;;;22.96;56.49;100689.27;108974;279;39291;-76
2023/09/14 11:51:24;;;;;;;1.00;0.70;;;;;;;22.77;56.50;100694.59;108823;279;40106;-76
2023/09/14 11:54:05;;;;;;;2.00;0.90;;;;;;;22.61;57.09;100698.58;108885;279;38173;-75
2023/09/14 11:56:43;;;;;;;1.00;0.60;;;;;;;22.49;57.32;100703.72;108903;279;39126;-76
2023/09/14 11:59:33;;;;;;;1.20;0.70;;;;;;;22.41;57.74;100700.77;108927;279;38741;-74
2023/09/14 12:02:09;;;;;;;1.60;0.60;;;;;;;22.34;58.04;100701.01;108879;279;38319;-73
2023/09/14 12:04:44;;;;;;;1.10;0.80;;;;;;;22.32;58.14;100703.67;108886;279;38264;-75
2023/09/14 12:07:26;;;;;;;0.70;0.50;;;;;;;22.30;58.56;100706.83;108937;279;38358;-76